createdAt,value
2023-04-16T00:00:03.362Z,1.80
2023-04-16T00:02:31.063Z,1.38
2023-04-16T00:04:58.679Z,1.70
2023-04-16T00:07:26.176Z,1.75
2023-04-16T00:09:53.561Z,1.95
2023-04-16T00:12:21.056Z,1.75
2023-04-16T00:14:49.276Z,1.52
2023-04-16T00:17:16.707Z,1.70
2023-04-16T00:19:44.405Z,2.08
2023-04-16T00:22:11.799Z,1.52
2023-04-16T00:24:39.168Z,1.38
2023-04-16T00:27:06.932Z,1.40
2023-04-16T00:29:34.954Z,1.38
2023-04-16T00:32:02.496Z,1.40
2023-04-16T00:34:30.089Z,1.33
2023-04-16T00:36:57.534Z,1.13
2023-04-16T00:39:25.238Z,1.10
2023-04-16T00:41:52.779Z,1.00
2023-04-16T00:44:20.232Z,1.35
2023-04-16T00:46:47.994Z,1.00
2023-04-16T00:49:15.586Z,0.90
2023-04-16T00:51:43.206Z,1.17
2023-04-16T00:54:10.762Z,1.20
2023-04-16T00:56:38.879Z,1.20
2023-04-16T00:59:06.836Z,1.40
2023-04-16T01:01:34.379Z,1.60
2023-04-16T01:04:02.064Z,1.70
2023-04-16T01:06:29.685Z,1.48
2023-04-16T01:08:57.117Z,1.58
2023-04-16T01:11:25.292Z,1.85
2023-04-16T01:13:52.921Z,1.85
2023-04-16T01:16:21.037Z,2.00
2023-04-16T01:18:48.508Z,2.25
2023-04-16T01:21:16.309Z,2.05
2023-04-16T01:23:43.741Z,2.58
2023-04-16T01:26:11.273Z,2.40
2023-04-16T01:28:38.753Z,2.58
2023-04-16T01:31:06.290Z,2.22
2023-04-16T01:33:33.722Z,2.15
2023-04-16T01:36:01.324Z,2.22
2023-04-16T01:38:29.057Z,2.47
2023-04-16T01:41:00.451Z,2.85
2023-04-16T01:43:27.882Z,2.72
2023-04-16T01:46:20.836Z,2.65
2023-04-16T01:48:48.854Z,3.40
2023-04-16T01:51:16.282Z,2.70
2023-04-16T01:53:43.685Z,2.85
2023-04-16T01:56:11.216Z,3.55
2023-04-16T01:58:38.740Z,2.67
2023-04-16T02:01:06.895Z,3.28
2023-04-16T02:03:34.809Z,2.97
2023-04-16T02:06:02.525Z,3.10
2023-04-16T02:08:29.913Z,2.78
2023-04-16T02:10:58.280Z,2.72
2023-04-16T02:13:26.250Z,2.70
2023-04-16T02:15:53.889Z,2.97
2023-04-16T02:18:21.540Z,2.90
2023-04-16T02:20:49.912Z,3.05
2023-04-16T02:23:17.594Z,2.80
2023-04-16T02:25:46.986Z,2.97
2023-04-16T02:28:16.515Z,3.10
2023-04-16T02:30:44.325Z,2.75
2023-04-16T02:33:12.614Z,3.15
2023-04-16T02:35:40.748Z,3.30
2023-04-16T02:38:08.890Z,3.35
2023-04-16T02:40:36.745Z,2.72
2023-04-16T02:43:04.375Z,2.53
2023-04-16T02:45:31.840Z,3.53
2023-04-16T02:48:00.263Z,3.03
2023-04-16T02:50:27.787Z,3.03
2023-04-16T02:52:55.245Z,3.00
2023-04-16T02:55:22.888Z,3.10
2023-04-16T02:57:50.322Z,3.63
2023-04-16T03:00:18.146Z,3.75
2023-04-16T03:02:45.744Z,3.58
2023-04-16T03:05:13.213Z,3.10
2023-04-16T03:07:40.986Z,3.30
2023-04-16T03:10:09.344Z,3.58
2023-04-16T03:12:36.856Z,3.53
2023-04-16T03:15:04.705Z,3.88
2023-04-16T03:17:32.282Z,3.80
2023-04-16T03:19:59.864Z,4.25
2023-04-16T03:22:27.233Z,3.83
2023-04-16T03:24:54.758Z,4.57
2023-04-16T03:27:22.187Z,4.32
2023-04-16T03:29:49.637Z,4.13
2023-04-16T03:32:17.682Z,4.65
2023-04-16T03:34:45.157Z,4.57
2023-04-16T03:37:12.611Z,4.50
2023-04-16T03:39:40.490Z,4.88
2023-04-16T03:42:07.953Z,4.43
2023-04-16T03:44:35.549Z,4.88
2023-04-16T03:47:02.997Z,4.97
2023-04-16T03:49:30.522Z,4.78
2023-04-16T03:51:57.925Z,5.50
2023-04-16T03:54:25.475Z,4.80
2023-04-16T03:56:52.921Z,5.40
2023-04-16T03:59:20.440Z,5.85
2023-04-16T04:01:48.251Z,4.93
2023-04-16T04:04:15.836Z,5.15
2023-04-16T04:06:45.181Z,5.65
2023-04-16T04:09:12.965Z,5.53
2023-04-16T04:11:40.421Z,5.82
2023-04-16T04:14:07.882Z,5.70
2023-04-16T04:16:35.887Z,5.28
2023-04-16T04:19:03.398Z,6.22
2023-04-16T04:21:31.819Z,5.90
2023-04-16T04:23:59.298Z,6.63
2023-04-16T04:26:26.756Z,5.90
2023-04-16T04:28:54.248Z,5.15
2023-04-16T04:31:21.778Z,5.97
2023-04-16T04:33:49.526Z,5.50
2023-04-16T04:36:17.362Z,6.40
2023-04-16T04:38:45.341Z,5.88
2023-04-16T04:41:12.746Z,5.97
2023-04-16T04:43:40.163Z,6.57
2023-04-16T04:46:07.665Z,5.97
2023-04-16T04:48:35.469Z,5.97
2023-04-16T04:51:04.992Z,6.65
2023-04-16T04:53:32.984Z,6.72
2023-04-16T04:56:11.131Z,6.97
2023-04-16T04:58:40.673Z,6.55
2023-04-16T05:01:08.215Z,6.50
2023-04-16T05:03:36.217Z,7.00
2023-04-16T05:06:03.781Z,6.00
2023-04-16T05:08:31.185Z,6.28
2023-04-16T05:10:58.676Z,6.35
2023-04-16T05:13:26.284Z,6.40
2023-04-16T05:15:53.687Z,7.28
2023-04-16T05:18:21.426Z,7.07
2023-04-16T05:20:48.934Z,7.03
2023-04-16T05:23:16.436Z,7.28
2023-04-16T05:25:44.109Z,6.53
2023-04-16T05:28:11.535Z,6.57
2023-04-16T05:30:38.984Z,6.78
2023-04-16T05:33:06.527Z,6.43
2023-04-16T05:35:35.161Z,6.85
2023-04-16T05:38:04.440Z,6.38
2023-04-16T05:40:32.622Z,6.20
2023-04-16T05:43:00.161Z,6.50
2023-04-16T05:45:28.147Z,6.68
2023-04-16T05:47:55.990Z,6.70
2023-04-16T05:50:23.400Z,5.97
2023-04-16T05:52:50.891Z,6.60
2023-04-16T05:55:18.586Z,6.70
2023-04-16T05:57:46.573Z,6.30
2023-04-16T06:00:14.167Z,6.57
2023-04-16T06:02:41.976Z,6.47
2023-04-16T06:05:09.667Z,6.57
2023-04-16T06:07:37.093Z,6.13
2023-04-16T06:10:05.725Z,6.20
2023-04-16T06:12:33.102Z,6.05
2023-04-16T06:15:01.128Z,6.22
2023-04-16T06:17:28.869Z,6.43
2023-04-16T06:19:56.655Z,6.28
2023-04-16T06:22:24.673Z,5.97
2023-04-16T06:24:53.082Z,6.65
2023-04-16T06:27:20.443Z,5.65
2023-04-16T06:29:47.834Z,6.05
2023-04-16T06:32:17.327Z,5.30
2023-04-16T06:34:44.724Z,5.82
2023-04-16T06:37:12.204Z,6.07
2023-04-16T06:39:40.132Z,5.90
2023-04-16T06:42:07.696Z,6.60
2023-04-16T06:44:36.012Z,5.85
2023-04-16T06:47:03.579Z,5.38
2023-04-16T06:49:31.120Z,5.90
2023-04-16T06:51:58.578Z,6.07
2023-04-16T06:54:26.052Z,5.65
2023-04-16T06:56:53.443Z,5.15
2023-04-16T06:59:20.832Z,5.25
2023-04-16T07:01:48.691Z,7.22
2023-04-16T07:04:17.042Z,5.88
2023-04-16T07:06:44.982Z,6.88
2023-04-16T07:09:12.944Z,6.25
2023-04-16T07:11:40.923Z,6.15
2023-04-16T07:14:08.456Z,6.22
2023-04-16T07:16:38.091Z,6.43
2023-04-16T07:19:07.019Z,9.63
2023-04-16T07:21:34.823Z,6.80
2023-04-16T07:24:02.891Z,6.70
2023-04-16T07:26:30.551Z,5.88
2023-04-16T07:28:58.010Z,6.25
2023-04-16T07:31:25.617Z,6.28
2023-04-16T07:33:53.215Z,6.00
2023-04-16T07:36:21.104Z,5.95
2023-04-16T07:38:48.744Z,8.73
2023-04-16T07:41:16.245Z,6.57
2023-04-16T07:43:43.678Z,5.70
2023-04-16T07:46:11.215Z,6.07
2023-04-16T07:48:38.954Z,6.47
2023-04-16T07:51:06.806Z,7.05
2023-04-16T07:53:34.326Z,6.97
2023-04-16T07:56:01.780Z,5.43
2023-04-16T07:58:29.241Z,5.85
2023-04-16T08:00:57.143Z,6.05
2023-04-16T08:03:24.859Z,5.45
2023-04-16T08:05:52.653Z,6.45
2023-04-16T08:08:20.331Z,6.32
2023-04-16T08:10:48.150Z,5.85
2023-04-16T08:13:15.592Z,6.45
2023-04-16T08:15:43.094Z,6.45
2023-04-16T08:18:15.588Z,6.50
2023-04-16T08:20:43.585Z,6.25
2023-04-16T08:23:11.954Z,6.53
2023-04-16T08:25:39.435Z,7.07
2023-04-16T08:28:06.983Z,7.00
2023-04-16T08:30:34.804Z,6.07
2023-04-16T08:33:02.632Z,6.47
2023-04-16T08:35:30.231Z,7.28
2023-04-16T08:38:00.543Z,7.13
2023-04-16T08:40:30.759Z,6.80
2023-04-16T08:43:00.560Z,7.63
2023-04-16T08:45:28.169Z,7.85
2023-04-16T08:47:55.591Z,7.28
2023-04-16T08:50:25.615Z,7.07
2023-04-16T08:52:53.868Z,8.52
2023-04-16T08:55:37.685Z,7.15
2023-04-16T08:58:14.944Z,8.63
2023-04-16T09:00:42.832Z,7.70
2023-04-16T09:03:11.290Z,9.88
2023-04-16T09:05:39.421Z,7.80
2023-04-16T09:08:07.448Z,7.47
2023-04-16T09:10:35.618Z,8.80
2023-04-16T09:13:03.079Z,8.52
2023-04-16T09:15:31.483Z,8.13
2023-04-16T09:17:59.948Z,8.48
2023-04-16T09:20:27.370Z,8.60
2023-04-16T09:22:54.863Z,8.68
2023-04-16T09:25:22.793Z,7.97
2023-04-16T09:27:51.298Z,7.45
2023-04-16T09:30:23.413Z,9.25
2023-04-16T09:32:52.546Z,8.60
2023-04-16T09:35:20.657Z,8.82
2023-04-16T09:37:58.197Z,9.13
2023-04-16T09:40:27.434Z,9.80
2023-04-16T09:42:57.856Z,9.18
2023-04-16T09:45:25.418Z,10.50
2023-04-16T09:47:52.841Z,9.93
2023-04-16T09:50:20.695Z,8.75
2023-04-16T09:52:51.778Z,9.75
2023-04-16T09:55:27.832Z,9.65
2023-04-16T09:58:02.070Z,8.57
2023-04-16T10:00:31.579Z,9.18
2023-04-16T10:03:06.830Z,8.82
2023-04-16T10:05:34.680Z,9.68
2023-04-16T10:08:02.365Z,9.63
2023-04-16T10:10:30.676Z,7.82
2023-04-16T10:12:58.749Z,9.18
2023-04-16T10:15:26.421Z,8.85
2023-04-16T10:17:54.780Z,8.88
2023-04-16T10:20:24.018Z,8.75
2023-04-16T10:22:51.836Z,8.38
2023-04-16T10:25:19.632Z,9.05
2023-04-16T10:27:47.542Z,8.20
2023-04-16T10:30:17.003Z,8.27
2023-04-16T10:32:45.540Z,8.82
2023-04-16T10:35:19.277Z,8.25
2023-04-16T10:37:47.553Z,8.02
2023-04-16T10:40:27.576Z,9.02
2023-04-16T10:43:01.720Z,8.07
2023-04-16T10:45:37.484Z,7.97
2023-04-16T10:48:06.609Z,8.43
2023-04-16T10:50:37.584Z,8.90
2023-04-16T10:53:31.268Z,8.10
2023-04-16T10:56:12.897Z,11.02
2023-04-16T10:58:40.484Z,8.15
2023-04-16T11:01:16.665Z,8.25
2023-04-16T11:03:48.311Z,9.52
2023-04-16T11:06:17.914Z,8.48
2023-04-16T11:11:17.999Z,8.40
2023-04-16T11:13:46.311Z,8.35
2023-04-16T11:16:14.537Z,7.57
2023-04-16T11:18:51.031Z,8.07
2023-04-16T11:21:20.231Z,7.97
2023-04-16T11:23:53.591Z,8.35
2023-04-16T11:26:31.029Z,8.23
2023-04-16T11:29:00.280Z,8.68
2023-04-16T11:31:27.962Z,9.02
2023-04-16T11:33:57.145Z,9.02
2023-04-16T11:36:26.949Z,8.77
2023-04-16T11:39:02.544Z,8.45
2023-04-16T11:41:29.974Z,8.57
2023-04-16T11:43:57.608Z,7.90
2023-04-16T11:46:38.578Z,8.52
2023-04-16T11:49:06.088Z,8.02
2023-04-16T11:51:33.554Z,8.23
2023-04-16T11:54:01.114Z,9.48
2023-04-16T11:56:31.108Z,9.13
2023-04-16T11:59:08.674Z,8.23
2023-04-16T12:01:37.904Z,8.93
2023-04-16T12:04:08.133Z,8.73
2023-04-16T12:06:36.434Z,8.45
2023-04-16T12:09:23.901Z,9.13
2023-04-16T12:11:51.721Z,9.20
2023-04-16T12:14:19.529Z,9.25
2023-04-16T12:16:47.263Z,9.13
2023-04-16T12:19:15.173Z,8.63
2023-04-16T12:21:45.185Z,8.68
2023-04-16T12:24:14.916Z,9.05
2023-04-16T12:26:52.234Z,10.18
2023-04-16T12:29:25.768Z,10.15
2023-04-16T12:31:54.482Z,10.60
2023-04-16T12:34:27.699Z,9.40
2023-04-16T12:37:10.710Z,10.02
2023-04-16T12:39:38.279Z,9.15
2023-04-16T12:42:09.904Z,9.68
2023-04-16T12:44:37.457Z,8.20
2023-04-16T12:47:05.719Z,9.23
2023-04-16T12:49:33.114Z,9.25
2023-04-16T12:52:00.708Z,10.40
2023-04-16T12:54:31.445Z,9.68
2023-04-16T12:56:58.889Z,9.63
2023-04-16T12:59:26.463Z,9.63
2023-04-16T13:01:54.023Z,9.80
2023-04-16T13:04:24.281Z,8.65
2023-04-16T13:06:53.201Z,8.95
2023-04-16T13:09:20.618Z,9.23
2023-04-16T13:11:48.005Z,11.70
2023-04-16T13:14:15.510Z,9.18
2023-04-16T13:16:42.980Z,9.63
2023-04-16T13:19:10.603Z,10.00
2023-04-16T13:21:38.387Z,9.23
2023-04-16T13:24:06.274Z,9.95
2023-04-16T13:26:33.790Z,9.43
2023-04-16T13:29:01.421Z,9.85
2023-04-16T13:31:28.998Z,10.80
2023-04-16T13:33:56.462Z,8.70
2023-04-16T13:36:25.651Z,8.98
2023-04-16T13:38:54.926Z,9.27
2023-04-16T13:41:22.373Z,9.50
2023-04-16T13:43:49.919Z,9.13
2023-04-16T13:46:17.423Z,9.05
2023-04-16T13:48:46.255Z,9.13
2023-04-16T13:51:15.612Z,8.93
2023-04-16T13:53:43.035Z,9.30
2023-04-16T13:56:11.469Z,8.27
2023-04-16T13:58:40.328Z,8.25
2023-04-16T14:01:08.355Z,9.65
2023-04-16T14:03:37.766Z,8.30
2023-04-16T14:06:05.767Z,10.00
2023-04-16T14:08:33.163Z,9.77
2023-04-16T14:11:01.518Z,10.10
2023-04-16T14:13:29.065Z,10.00
2023-04-16T14:15:56.695Z,10.18
2023-04-16T14:18:24.155Z,10.13
2023-04-16T14:20:51.657Z,10.02
2023-04-16T14:23:19.077Z,9.88
2023-04-16T14:25:46.482Z,9.73
2023-04-16T14:28:15.685Z,9.80
2023-04-16T14:30:43.425Z,10.07
2023-04-16T14:33:10.977Z,10.30
2023-04-16T14:35:38.587Z,10.05
2023-04-16T14:38:06.049Z,11.23
2023-04-16T14:40:34.675Z,10.27
2023-04-16T14:43:02.217Z,10.60
2023-04-16T14:45:30.997Z,10.38
2023-04-16T14:47:58.464Z,9.90
2023-04-16T14:50:26.045Z,9.70
2023-04-16T14:52:54.667Z,9.75
2023-04-16T14:55:22.209Z,9.95
2023-04-16T14:57:50.019Z,9.88
2023-04-16T15:00:18.788Z,9.50
2023-04-16T15:02:48.379Z,8.80
2023-04-16T15:05:16.231Z,8.95
2023-04-16T15:07:44.036Z,8.85
2023-04-16T15:10:12.758Z,8.65
2023-04-16T15:12:40.666Z,8.68
2023-04-16T15:15:08.670Z,8.30
2023-04-16T15:17:36.326Z,8.43
2023-04-16T15:20:08.416Z,8.88
2023-04-16T15:22:36.304Z,8.80
2023-04-16T15:25:04.483Z,8.60
2023-04-16T15:27:32.068Z,8.63
2023-04-16T15:29:59.793Z,9.00
2023-04-16T15:32:27.468Z,8.70
2023-04-16T15:34:55.140Z,9.00
2023-04-16T15:37:22.587Z,8.80
2023-04-16T15:39:50.082Z,8.57
2023-04-16T15:42:17.603Z,8.68
2023-04-16T15:44:45.022Z,8.10
2023-04-16T15:47:12.503Z,8.32
2023-04-16T15:49:40.363Z,8.65
2023-04-16T15:52:08.056Z,8.00
2023-04-16T15:54:35.621Z,8.75
2023-04-16T15:57:03.060Z,7.60
2023-04-16T15:59:30.477Z,8.10
2023-04-16T16:01:58.051Z,8.93
2023-04-16T16:04:26.749Z,7.95
2023-04-16T16:06:54.493Z,7.03
2023-04-16T16:09:26.356Z,8.13
2023-04-16T16:11:54.683Z,8.05
2023-04-16T16:14:23.067Z,7.38
2023-04-16T16:16:50.830Z,7.68
2023-04-16T16:19:18.311Z,8.07
2023-04-16T16:21:46.058Z,7.35
2023-04-16T16:24:13.966Z,8.82
2023-04-16T16:26:41.598Z,8.00
2023-04-16T16:29:09.272Z,7.45
2023-04-16T16:31:36.992Z,8.93
2023-04-16T16:34:04.563Z,8.20
2023-04-16T16:36:36.669Z,9.02
2023-04-16T16:39:04.873Z,8.50
2023-04-16T16:41:33.032Z,8.50
2023-04-16T16:44:00.973Z,8.88
2023-04-16T16:46:28.515Z,9.20
2023-04-16T16:48:56.608Z,9.80
2023-04-16T16:51:24.355Z,8.95
2023-04-16T16:53:51.991Z,9.48
2023-04-16T16:56:22.901Z,8.35
2023-04-16T16:58:51.095Z,8.75
2023-04-16T17:01:19.006Z,8.60
2023-04-16T17:03:47.044Z,9.15
2023-04-16T17:06:14.737Z,9.48
2023-04-16T17:08:42.276Z,9.75
2023-04-16T17:11:09.986Z,8.75
2023-04-16T17:13:38.179Z,9.13
2023-04-16T17:16:06.026Z,10.30
2023-04-16T17:18:34.107Z,9.35
2023-04-16T17:21:01.755Z,10.20
2023-04-16T17:23:29.248Z,9.82
2023-04-16T17:25:58.641Z,9.43
2023-04-16T17:28:26.499Z,10.05
2023-04-16T17:30:54.444Z,10.63
2023-04-16T17:33:22.185Z,9.50
2023-04-16T17:35:49.828Z,9.20
2023-04-16T17:38:17.449Z,9.52
2023-04-16T17:40:44.956Z,10.13
2023-04-16T17:43:12.661Z,10.02
2023-04-16T17:45:40.167Z,8.18
2023-04-16T17:48:07.944Z,9.00
2023-04-16T17:50:37.529Z,9.68
2023-04-16T17:53:06.480Z,9.35
2023-04-16T17:55:34.066Z,8.85
2023-04-16T17:58:03.808Z,9.07
2023-04-16T18:00:31.450Z,9.05
2023-04-16T18:02:59.934Z,9.48
2023-04-16T18:05:27.744Z,10.68
2023-04-16T18:07:55.892Z,11.10
2023-04-16T18:10:23.513Z,9.38
2023-04-16T18:12:51.475Z,10.18
2023-04-16T18:15:19.053Z,10.45
2023-04-16T18:17:46.987Z,10.18
2023-04-16T18:20:17.033Z,9.82
2023-04-16T18:22:44.509Z,8.80
2023-04-16T18:25:12.298Z,9.82
2023-04-16T18:27:39.922Z,9.43
2023-04-16T18:30:08.246Z,9.82
2023-04-16T18:33:03.676Z,9.70
2023-04-16T18:35:30.991Z,9.40
2023-04-16T18:37:58.565Z,9.32
2023-04-16T18:40:26.202Z,10.20
2023-04-16T18:42:53.671Z,10.32
2023-04-16T18:45:22.059Z,9.98
2023-04-16T18:47:50.423Z,10.25
2023-04-16T18:50:18.269Z,9.38
2023-04-16T18:52:45.901Z,10.45
2023-04-16T18:55:13.367Z,9.95
2023-04-16T18:57:40.937Z,10.82
2023-04-16T19:00:13.018Z,10.98
2023-04-16T19:02:40.896Z,10.52
2023-04-16T19:05:09.713Z,10.85
2023-04-16T19:07:37.824Z,12.05
2023-04-16T19:10:06.028Z,12.35
2023-04-16T19:12:33.620Z,11.65
2023-04-16T19:15:01.370Z,10.75
2023-04-16T19:17:28.985Z,10.82
2023-04-16T19:19:56.584Z,10.30
2023-04-16T19:22:24.239Z,10.30
2023-04-16T19:24:51.683Z,11.02
2023-04-16T19:27:19.156Z,11.20
2023-04-16T19:29:47.221Z,10.23
2023-04-16T19:32:14.736Z,11.38
2023-04-16T19:34:42.297Z,11.70
2023-04-16T19:37:10.083Z,11.40
2023-04-16T19:39:37.654Z,10.95
2023-04-16T19:42:05.405Z,10.93
2023-04-16T19:44:32.956Z,11.38
2023-04-16T19:47:00.560Z,12.85
2023-04-16T19:49:28.326Z,11.30
2023-04-16T19:51:55.998Z,11.85
2023-04-16T19:54:23.674Z,11.13
2023-04-16T19:56:54.092Z,11.90
2023-04-16T19:59:21.779Z,12.55
2023-04-16T20:01:49.327Z,12.05
2023-04-16T20:04:16.872Z,11.82
2023-04-16T20:06:44.485Z,12.02
2023-04-16T20:09:12.268Z,11.60
2023-04-16T20:11:40.143Z,13.13
2023-04-16T20:14:08.038Z,12.15
2023-04-16T20:16:38.648Z,13.38
2023-04-16T20:19:08.749Z,13.48
2023-04-16T20:21:36.901Z,12.60
2023-04-16T20:24:04.517Z,12.73
2023-04-16T20:26:34.218Z,12.52
2023-04-16T20:29:02.073Z,13.85
2023-04-16T20:31:29.579Z,14.35
2023-04-16T20:33:57.332Z,15.18
2023-04-16T20:36:24.949Z,14.95
2023-04-16T20:38:54.041Z,14.02
2023-04-16T20:41:22.674Z,15.30
2023-04-16T20:43:50.736Z,13.75
2023-04-16T20:46:18.654Z,13.55
2023-04-16T20:48:46.293Z,12.43
2023-04-16T20:51:13.834Z,13.15
2023-04-16T20:53:41.424Z,13.30
2023-04-16T20:56:09.326Z,12.88
2023-04-16T20:58:37.234Z,13.07
2023-04-16T21:01:06.104Z,12.02
2023-04-16T21:03:34.002Z,12.40
2023-04-16T21:06:02.028Z,12.13
2023-04-16T21:08:29.498Z,11.73
2023-04-16T21:10:57.008Z,11.52
2023-04-16T21:13:24.825Z,11.68
2023-04-16T21:15:53.068Z,10.48
2023-04-16T21:18:21.026Z,11.10
2023-04-16T21:20:48.648Z,11.35
2023-04-16T21:23:16.773Z,10.93
2023-04-16T21:25:44.263Z,12.05
2023-04-16T21:28:11.790Z,12.00
2023-04-16T21:30:39.735Z,10.48
2023-04-16T21:33:07.642Z,10.52
2023-04-16T21:35:35.459Z,11.18
2023-04-16T21:38:02.996Z,11.15
2023-04-16T21:40:30.681Z,10.80
2023-04-16T21:42:58.209Z,10.35
2023-04-16T21:45:25.689Z,11.60
2023-04-16T21:47:53.291Z,11.43
2023-04-16T21:50:21.268Z,10.68
2023-04-16T21:52:48.709Z,10.02
2023-04-16T21:55:16.199Z,11.30
2023-04-16T21:57:43.776Z,11.73
2023-04-16T22:00:14.605Z,11.52
2023-04-16T22:02:43.257Z,10.93
2023-04-16T22:05:11.861Z,10.95
2023-04-16T22:07:39.430Z,11.82
2023-04-16T22:10:09.105Z,11.57
2023-04-16T22:12:38.098Z,12.38
2023-04-16T22:15:09.213Z,11.93
2023-04-16T22:17:37.142Z,12.75
2023-04-16T22:20:14.954Z,12.10
2023-04-16T22:22:43.014Z,12.30
2023-04-16T22:25:11.510Z,12.40
2023-04-16T22:27:39.314Z,13.20
2023-04-16T22:30:08.478Z,13.02
2023-04-16T22:32:36.152Z,11.52
2023-04-16T22:35:04.026Z,12.75
2023-04-16T22:37:31.611Z,12.07
2023-04-16T22:39:59.211Z,13.55
2023-04-16T22:42:27.520Z,12.45
2023-04-16T22:44:55.845Z,13.27
2023-04-16T22:47:23.606Z,13.25
2023-04-16T22:49:51.499Z,13.43
2023-04-16T22:52:19.002Z,13.43
2023-04-16T22:54:46.475Z,13.15
2023-04-16T22:57:14.621Z,13.80
2023-04-16T22:59:42.025Z,12.85
2023-04-16T23:02:09.509Z,14.23
2023-04-16T23:04:37.075Z,13.82
2023-04-16T23:07:04.638Z,14.07
2023-04-16T23:09:33.532Z,15.05
2023-04-16T23:12:02.200Z,14.52
2023-04-16T23:14:30.483Z,14.98
2023-04-16T23:16:58.984Z,13.35
2023-04-16T23:19:26.551Z,14.57
2023-04-16T23:21:54.009Z,15.52
2023-04-16T23:24:21.561Z,13.63
2023-04-16T23:26:49.583Z,14.75
2023-04-16T23:29:17.198Z,15.30
2023-04-16T23:31:44.790Z,14.23
2023-04-16T23:34:12.619Z,15.13
2023-04-16T23:36:40.950Z,14.10
2023-04-16T23:39:08.482Z,15.52
2023-04-16T23:41:36.410Z,14.55
2023-04-16T23:44:04.255Z,13.55
2023-04-16T23:46:31.787Z,14.43
2023-04-16T23:48:59.520Z,14.65
2023-04-16T23:51:26.899Z,12.95
2023-04-16T23:53:54.302Z,14.82
2023-04-16T23:56:21.887Z,14.70
2023-04-16T23:58:49.346Z,13.95
